sensor_id;sensor_type;location;lat;lon;timestamp;P1;durP1;ratioP1;P2;durP2;ratioP2
72813;SDS011;60945;48.516;-2.768;2023-04-25T00:01:24;7.57;;;3.38;;
72813;SDS011;60945;48.516;-2.768;2023-04-25T00:03:50;9.93;;;2.95;;
72813;SDS011;60945;48.516;-2.768;2023-04-25T00:06:16;9.10;;;3.28;;
72813;SDS011;60945;48.516;-2.768;2023-04-25T00:08:42;7.55;;;3.15;;
72813;SDS011;60945;48.516;-2.768;2023-04-25T00:11:08;8.80;;;3.65;;
72813;SDS011;60945;48.516;-2.768;2023-04-25T00:13:34;6.55;;;2.58;;
72813;SDS011;60945;48.516;-2.768;2023-04-25T00:15:59;9.15;;;2.78;;
72813;SDS011;60945;48.516;-2.768;2023-04-25T00:18:25;7.57;;;3.08;;
72813;SDS011;60945;48.516;-2.768;2023-04-25T00:20:54;6.22;;;2.80;;
72813;SDS011;60945;48.516;-2.768;2023-04-25T00:23:20;6.22;;;3.05;;
72813;SDS011;60945;48.516;-2.768;2023-04-25T00:25:47;6.78;;;3.25;;
72813;SDS011;60945;48.516;-2.768;2023-04-25T00:28:14;9.32;;;3.38;;
72813;SDS011;60945;48.516;-2.768;2023-04-25T00:30:40;8.70;;;3.00;;
72813;SDS011;60945;48.516;-2.768;2023-04-25T00:33:07;10.70;;;3.28;;
72813;SDS011;60945;48.516;-2.768;2023-04-25T00:35:33;7.65;;;3.10;;
72813;SDS011;60945;48.516;-2.768;2023-04-25T00:37:59;5.78;;;2.67;;
72813;SDS011;60945;48.516;-2.768;2023-04-25T00:40:25;10.10;;;3.30;;
72813;SDS011;60945;48.516;-2.768;2023-04-25T00:42:51;8.98;;;2.88;;
72813;SDS011;60945;48.516;-2.768;2023-04-25T00:45:18;5.13;;;2.53;;
72813;SDS011;60945;48.516;-2.768;2023-04-25T00:47:44;10.38;;;3.05;;
72813;SDS011;60945;48.516;-2.768;2023-04-25T00:50:10;9.35;;;3.33;;
72813;SDS011;60945;48.516;-2.768;2023-04-25T00:52:40;8.27;;;3.53;;
72813;SDS011;60945;48.516;-2.768;2023-04-25T00:55:08;7.78;;;3.28;;
72813;SDS011;60945;48.516;-2.768;2023-04-25T00:57:35;6.20;;;2.65;;
72813;SDS011;60945;48.516;-2.768;2023-04-25T01:00:00;10.27;;;3.10;;
72813;SDS011;60945;48.516;-2.768;2023-04-25T01:02:26;9.45;;;2.75;;
72813;SDS011;60945;48.516;-2.768;2023-04-25T01:04:53;5.32;;;3.13;;
72813;SDS011;60945;48.516;-2.768;2023-04-25T01:07:19;8.07;;;3.00;;
72813;SDS011;60945;48.516;-2.768;2023-04-25T01:09:45;11.00;;;3.28;;
72813;SDS011;60945;48.516;-2.768;2023-04-25T01:12:11;7.82;;;3.20;;
72813;SDS011;60945;48.516;-2.768;2023-04-25T01:14:40;7.28;;;3.17;;
72813;SDS011;60945;48.516;-2.768;2023-04-25T01:17:06;10.77;;;3.42;;
72813;SDS011;60945;48.516;-2.768;2023-04-25T01:19:32;8.27;;;3.03;;
72813;SDS011;60945;48.516;-2.768;2023-04-25T01:21:58;13.32;;;3.20;;
72813;SDS011;60945;48.516;-2.768;2023-04-25T01:24:24;8.38;;;3.60;;
72813;SDS011;60945;48.516;-2.768;2023-04-25T01:26:50;7.28;;;3.17;;
72813;SDS011;60945;48.516;-2.768;2023-04-25T01:29:17;5.22;;;2.63;;
72813;SDS011;60945;48.516;-2.768;2023-04-25T01:31:44;6.25;;;3.10;;
72813;SDS011;60945;48.516;-2.768;2023-04-25T01:34:10;6.50;;;2.97;;
72813;SDS011;60945;48.516;-2.768;2023-04-25T01:36:36;5.55;;;2.88;;
72813;SDS011;60945;48.516;-2.768;2023-04-25T01:39:02;6.55;;;3.15;;
72813;SDS011;60945;48.516;-2.768;2023-04-25T01:41:28;9.63;;;3.63;;
72813;SDS011;60945;48.516;-2.768;2023-04-25T01:43:54;6.13;;;3.33;;
72813;SDS011;60945;48.516;-2.768;2023-04-25T01:46:20;6.15;;;2.85;;
72813;SDS011;60945;48.516;-2.768;2023-04-25T01:48:46;7.43;;;2.85;;
72813;SDS011;60945;48.516;-2.768;2023-04-25T01:51:12;8.93;;;2.85;;
72813;SDS011;60945;48.516;-2.768;2023-04-25T01:53:38;8.05;;;3.42;;
72813;SDS011;60945;48.516;-2.768;2023-04-25T01:56:04;8.15;;;3.33;;
72813;SDS011;60945;48.516;-2.768;2023-04-25T01:58:30;6.15;;;3.05;;
72813;SDS011;60945;48.516;-2.768;2023-04-25T02:00:59;7.88;;;3.30;;
72813;SDS011;60945;48.516;-2.768;2023-04-25T02:03:25;9.32;;;3.70;;
72813;SDS011;60945;48.516;-2.768;2023-04-25T02:05:50;8.57;;;2.95;;
72813;SDS011;60945;48.516;-2.768;2023-04-25T02:08:19;9.32;;;3.70;;
72813;SDS011;60945;48.516;-2.768;2023-04-25T02:10:44;5.55;;;3.55;;
72813;SDS011;60945;48.516;-2.768;2023-04-25T02:13:10;8.77;;;3.28;;
72813;SDS011;60945;48.516;-2.768;2023-04-25T02:15:36;8.93;;;4.03;;
72813;SDS011;60945;48.516;-2.768;2023-04-25T02:18:01;9.18;;;3.40;;
72813;SDS011;60945;48.516;-2.768;2023-04-25T02:20:27;8.73;;;3.08;;
72813;SDS011;60945;48.516;-2.768;2023-04-25T02:22:55;7.45;;;3.35;;
72813;SDS011;60945;48.516;-2.768;2023-04-25T02:25:21;7.72;;;3.53;;
72813;SDS011;60945;48.516;-2.768;2023-04-25T02:27:50;10.25;;;4.28;;
72813;SDS011;60945;48.516;-2.768;2023-04-25T02:30:18;7.80;;;3.80;;
72813;SDS011;60945;48.516;-2.768;2023-04-25T02:32:44;13.15;;;4.47;;
72813;SDS011;60945;48.516;-2.768;2023-04-25T02:35:10;13.95;;;3.90;;
72813;SDS011;60945;48.516;-2.768;2023-04-25T02:37:38;9.73;;;4.30;;
72813;SDS011;60945;48.516;-2.768;2023-04-25T02:40:04;8.50;;;3.83;;
72813;SDS011;60945;48.516;-2.768;2023-04-25T02:42:30;8.43;;;3.60;;
72813;SDS011;60945;48.516;-2.768;2023-04-25T02:44:56;8.60;;;4.05;;
72813;SDS011;60945;48.516;-2.768;2023-04-25T02:47:22;7.65;;;4.03;;
72813;SDS011;60945;48.516;-2.768;2023-04-25T02:49:48;8.48;;;3.92;;
72813;SDS011;60945;48.516;-2.768;2023-04-25T02:52:13;9.40;;;4.10;;
72813;SDS011;60945;48.516;-2.768;2023-04-25T02:54:40;6.93;;;3.78;;
72813;SDS011;60945;48.516;-2.768;2023-04-25T02:57:05;9.55;;;3.50;;
72813;SDS011;60945;48.516;-2.768;2023-04-25T02:59:34;8.02;;;4.07;;
72813;SDS011;60945;48.516;-2.768;2023-04-25T03:02:00;6.90;;;3.65;;
72813;SDS011;60945;48.516;-2.768;2023-04-25T03:04:28;7.32;;;3.67;;
72813;SDS011;60945;48.516;-2.768;2023-04-25T03:06:54;7.75;;;3.95;;
72813;SDS011;60945;48.516;-2.768;2023-04-25T03:09:22;10.43;;;4.25;;
72813;SDS011;60945;48.516;-2.768;2023-04-25T03:11:48;7.63;;;3.45;;
72813;SDS011;60945;48.516;-2.768;2023-04-25T03:14:16;9.55;;;3.65;;
72813;SDS011;60945;48.516;-2.768;2023-04-25T03:16:41;8.55;;;4.05;;
72813;SDS011;60945;48.516;-2.768;2023-04-25T03:19:07;8.38;;;4.35;;
72813;SDS011;60945;48.516;-2.768;2023-04-25T03:21:34;8.98;;;4.05;;
72813;SDS011;60945;48.516;-2.768;2023-04-25T03:24:01;6.93;;;3.90;;
72813;SDS011;60945;48.516;-2.768;2023-04-25T03:26:27;8.68;;;4.03;;
72813;SDS011;60945;48.516;-2.768;2023-04-25T03:28:53;11.43;;;4.13;;
72813;SDS011;60945;48.516;-2.768;2023-04-25T03:31:19;9.00;;;4.20;;
72813;SDS011;60945;48.516;-2.768;2023-04-25T03:33:45;6.90;;;3.33;;
72813;SDS011;60945;48.516;-2.768;2023-04-25T03:36:10;7.55;;;3.88;;
72813;SDS011;60945;48.516;-2.768;2023-04-25T03:38:36;8.57;;;4.32;;
72813;SDS011;60945;48.516;-2.768;2023-04-25T03:41:02;9.73;;;4.32;;
72813;SDS011;60945;48.516;-2.768;2023-04-25T03:43:27;8.68;;;3.80;;
72813;SDS011;60945;48.516;-2.768;2023-04-25T03:45:53;8.52;;;4.10;;
72813;SDS011;60945;48.516;-2.768;2023-04-25T03:48:19;11.20;;;4.68;;
72813;SDS011;60945;48.516;-2.768;2023-04-25T03:50:47;8.02;;;3.65;;
72813;SDS011;60945;48.516;-2.768;2023-04-25T03:53:13;6.55;;;3.70;;
72813;SDS011;60945;48.516;-2.768;2023-04-25T03:55:38;11.70;;;4.97;;
72813;SDS011;60945;48.516;-2.768;2023-04-25T03:58:07;7.80;;;4.30;;
72813;SDS011;60945;48.516;-2.768;2023-04-25T04:00:34;7.88;;;3.78;;
72813;SDS011;60945;48.516;-2.768;2023-04-25T04:03:00;8.25;;;3.83;;
72813;SDS011;60945;48.516;-2.768;2023-04-25T04:05:25;9.60;;;4.30;;
72813;SDS011;60945;48.516;-2.768;2023-04-25T04:07:52;7.95;;;4.15;;
72813;SDS011;60945;48.516;-2.768;2023-04-25T04:10:18;13.68;;;4.72;;
72813;SDS011;60945;48.516;-2.768;2023-04-25T04:12:44;8.88;;;4.18;;
72813;SDS011;60945;48.516;-2.768;2023-04-25T04:15:10;5.97;;;4.30;;
72813;SDS011;60945;48.516;-2.768;2023-04-25T04:17:36;10.10;;;4.55;;
72813;SDS011;60945;48.516;-2.768;2023-04-25T04:20:01;7.88;;;4.03;;
72813;SDS011;60945;48.516;-2.768;2023-04-25T04:22:28;8.50;;;4.35;;
72813;SDS011;60945;48.516;-2.768;2023-04-25T04:24:54;8.70;;;4.70;;
72813;SDS011;60945;48.516;-2.768;2023-04-25T04:27:21;7.70;;;4.30;;
72813;SDS011;60945;48.516;-2.768;2023-04-25T04:29:51;7.80;;;4.28;;
72813;SDS011;60945;48.516;-2.768;2023-04-25T04:32:18;6.25;;;4.35;;
72813;SDS011;60945;48.516;-2.768;2023-04-25T04:34:43;8.48;;;4.22;;
72813;SDS011;60945;48.516;-2.768;2023-04-25T04:37:09;12.73;;;4.30;;
72813;SDS011;60945;48.516;-2.768;2023-04-25T04:39:41;9.77;;;4.57;;
72813;SDS011;60945;48.516;-2.768;2023-04-25T04:42:07;10.05;;;5.10;;
72813;SDS011;60945;48.516;-2.768;2023-04-25T04:44:33;8.45;;;4.53;;
72813;SDS011;60945;48.516;-2.768;2023-04-25T04:47:00;7.13;;;4.22;;
72813;SDS011;60945;48.516;-2.768;2023-04-25T04:49:26;8.15;;;4.43;;
72813;SDS011;60945;48.516;-2.768;2023-04-25T04:51:52;9.23;;;5.25;;
72813;SDS011;60945;48.516;-2.768;2023-04-25T04:54:19;8.60;;;5.00;;
72813;SDS011;60945;48.516;-2.768;2023-04-25T04:56:45;8.70;;;4.47;;
72813;SDS011;60945;48.516;-2.768;2023-04-25T04:59:10;13.52;;;4.60;;
72813;SDS011;60945;48.516;-2.768;2023-04-25T05:01:36;9.00;;;4.63;;
72813;SDS011;60945;48.516;-2.768;2023-04-25T05:04:02;7.10;;;4.40;;
72813;SDS011;60945;48.516;-2.768;2023-04-25T05:06:28;10.85;;;4.68;;
72813;SDS011;60945;48.516;-2.768;2023-04-25T05:08:55;8.50;;;4.55;;
72813;SDS011;60945;48.516;-2.768;2023-04-25T05:11:21;9.10;;;5.00;;
72813;SDS011;60945;48.516;-2.768;2023-04-25T05:13:49;8.60;;;4.95;;
72813;SDS011;60945;48.516;-2.768;2023-04-25T05:16:16;10.63;;;4.97;;
72813;SDS011;60945;48.516;-2.768;2023-04-25T05:18:42;14.30;;;4.82;;
72813;SDS011;60945;48.516;-2.768;2023-04-25T05:21:08;9.50;;;4.93;;
72813;SDS011;60945;48.516;-2.768;2023-04-25T05:23:33;9.20;;;5.18;;
72813;SDS011;60945;48.516;-2.768;2023-04-25T05:25:59;7.60;;;5.00;;
72813;SDS011;60945;48.516;-2.768;2023-04-25T05:28:25;6.95;;;4.20;;
72813;SDS011;60945;48.516;-2.768;2023-04-25T05:30:54;9.05;;;4.80;;
72813;SDS011;60945;48.516;-2.768;2023-04-25T05:33:19;8.38;;;4.28;;
72813;SDS011;60945;48.516;-2.768;2023-04-25T05:35:45;8.02;;;4.50;;
72813;SDS011;60945;48.516;-2.768;2023-04-25T05:38:11;9.20;;;4.38;;
72813;SDS011;60945;48.516;-2.768;2023-04-25T05:40:37;7.97;;;4.43;;
72813;SDS011;60945;48.516;-2.768;2023-04-25T05:43:02;8.23;;;4.60;;
72813;SDS011;60945;48.516;-2.768;2023-04-25T05:45:28;8.30;;;4.40;;
72813;SDS011;60945;48.516;-2.768;2023-04-25T05:47:56;8.93;;;4.95;;
72813;SDS011;60945;48.516;-2.768;2023-04-25T05:50:22;6.82;;;4.68;;
72813;SDS011;60945;48.516;-2.768;2023-04-25T05:52:47;9.02;;;4.20;;
72813;SDS011;60945;48.516;-2.768;2023-04-25T05:55:16;8.43;;;4.47;;
72813;SDS011;60945;48.516;-2.768;2023-04-25T05:57:41;9.10;;;4.82;;
72813;SDS011;60945;48.516;-2.768;2023-04-25T06:00:10;9.15;;;4.70;;
72813;SDS011;60945;48.516;-2.768;2023-04-25T06:02:40;10.00;;;4.47;;
72813;SDS011;60945;48.516;-2.768;2023-04-25T06:05:10;7.50;;;4.38;;
72813;SDS011;60945;48.516;-2.768;2023-04-25T06:07:36;8.55;;;4.55;;
72813;SDS011;60945;48.516;-2.768;2023-04-25T06:10:04;8.50;;;5.00;;
72813;SDS011;60945;48.516;-2.768;2023-04-25T06:12:32;7.82;;;4.30;;
72813;SDS011;60945;48.516;-2.768;2023-04-25T06:15:03;7.68;;;4.55;;
72813;SDS011;60945;48.516;-2.768;2023-04-25T06:17:29;9.10;;;4.43;;
72813;SDS011;60945;48.516;-2.768;2023-04-25T06:19:55;7.75;;;4.50;;
72813;SDS011;60945;48.516;-2.768;2023-04-25T06:22:21;11.05;;;4.70;;
72813;SDS011;60945;48.516;-2.768;2023-04-25T06:24:46;10.43;;;4.57;;
72813;SDS011;60945;48.516;-2.768;2023-04-25T06:27:12;8.88;;;5.20;;
72813;SDS011;60945;48.516;-2.768;2023-04-25T06:29:38;7.00;;;4.55;;
72813;SDS011;60945;48.516;-2.768;2023-04-25T06:32:03;8.80;;;4.53;;
72813;SDS011;60945;48.516;-2.768;2023-04-25T06:34:30;7.50;;;4.25;;
72813;SDS011;60945;48.516;-2.768;2023-04-25T06:36:55;6.90;;;4.05;;
72813;SDS011;60945;48.516;-2.768;2023-04-25T06:39:24;10.10;;;4.95;;
72813;SDS011;60945;48.516;-2.768;2023-04-25T06:41:50;9.80;;;5.00;;
72813;SDS011;60945;48.516;-2.768;2023-04-25T06:44:16;9.38;;;4.75;;
72813;SDS011;60945;48.516;-2.768;2023-04-25T06:46:41;6.25;;;4.43;;
72813;SDS011;60945;48.516;-2.768;2023-04-25T06:49:07;8.15;;;4.60;;
72813;SDS011;60945;48.516;-2.768;2023-04-25T06:51:33;9.95;;;4.57;;
72813;SDS011;60945;48.516;-2.768;2023-04-25T06:53:58;8.98;;;5.05;;
72813;SDS011;60945;48.516;-2.768;2023-04-25T06:56:25;7.50;;;4.68;;
72813;SDS011;60945;48.516;-2.768;2023-04-25T06:58:50;9.02;;;4.80;;
72813;SDS011;60945;48.516;-2.768;2023-04-25T07:01:16;8.45;;;4.78;;
72813;SDS011;60945;48.516;-2.768;2023-04-25T07:03:42;9.20;;;5.18;;
72813;SDS011;60945;48.516;-2.768;2023-04-25T07:06:07;6.20;;;4.38;;
72813;SDS011;60945;48.516;-2.768;2023-04-25T07:08:33;8.05;;;4.53;;
72813;SDS011;60945;48.516;-2.768;2023-04-25T07:10:59;10.02;;;4.68;;
72813;SDS011;60945;48.516;-2.768;2023-04-25T07:13:27;8.10;;;5.00;;
72813;SDS011;60945;48.516;-2.768;2023-04-25T07:15:53;9.85;;;4.80;;
72813;SDS011;60945;48.516;-2.768;2023-04-25T07:18:18;9.48;;;5.35;;
72813;SDS011;60945;48.516;-2.768;2023-04-25T07:20:44;9.27;;;4.82;;
72813;SDS011;60945;48.516;-2.768;2023-04-25T07:23:10;7.40;;;4.90;;
72813;SDS011;60945;48.516;-2.768;2023-04-25T07:25:38;9.73;;;4.82;;
72813;SDS011;60945;48.516;-2.768;2023-04-25T07:28:04;8.65;;;5.20;;
72813;SDS011;60945;48.516;-2.768;2023-04-25T07:30:30;8.18;;;4.82;;
72813;SDS011;60945;48.516;-2.768;2023-04-25T07:32:56;7.93;;;4.70;;
72813;SDS011;60945;48.516;-2.768;2023-04-25T07:35:24;9.77;;;4.57;;
72813;SDS011;60945;48.516;-2.768;2023-04-25T07:37:50;9.65;;;4.55;;
72813;SDS011;60945;48.516;-2.768;2023-04-25T07:40:16;7.32;;;4.55;;
72813;SDS011;60945;48.516;-2.768;2023-04-25T07:42:41;6.45;;;4.30;;
72813;SDS011;60945;48.516;-2.768;2023-04-25T07:45:07;9.40;;;4.78;;
72813;SDS011;60945;48.516;-2.768;2023-04-25T07:47:34;7.03;;;4.60;;
72813;SDS011;60945;48.516;-2.768;2023-04-25T07:50:00;8.05;;;4.78;;
72813;SDS011;60945;48.516;-2.768;2023-04-25T07:52:26;9.50;;;4.57;;
72813;SDS011;60945;48.516;-2.768;2023-04-25T07:54:52;8.20;;;4.47;;
72813;SDS011;60945;48.516;-2.768;2023-04-25T07:57:18;8.32;;;4.43;;
72813;SDS011;60945;48.516;-2.768;2023-04-25T07:59:44;7.15;;;4.28;;
72813;SDS011;60945;48.516;-2.768;2023-04-25T08:02:10;10.55;;;4.40;;
72813;SDS011;60945;48.516;-2.768;2023-04-25T08:04:36;8.70;;;4.45;;
72813;SDS011;60945;48.516;-2.768;2023-04-25T08:07:01;8.85;;;4.22;;
72813;SDS011;60945;48.516;-2.768;2023-04-25T08:09:27;8.75;;;4.00;;
72813;SDS011;60945;48.516;-2.768;2023-04-25T08:11:54;6.07;;;3.65;;
72813;SDS011;60945;48.516;-2.768;2023-04-25T08:14:19;8.27;;;3.70;;
72813;SDS011;60945;48.516;-2.768;2023-04-25T08:16:48;7.53;;;3.58;;
72813;SDS011;60945;48.516;-2.768;2023-04-25T08:19:16;8.02;;;3.83;;
72813;SDS011;60945;48.516;-2.768;2023-04-25T08:21:42;8.85;;;4.60;;
72813;SDS011;60945;48.516;-2.768;2023-04-25T08:24:07;8.73;;;3.58;;
72813;SDS011;60945;48.516;-2.768;2023-04-25T08:26:33;10.13;;;4.05;;
72813;SDS011;60945;48.516;-2.768;2023-04-25T08:28:59;6.55;;;3.63;;
72813;SDS011;60945;48.516;-2.768;2023-04-25T08:31:25;10.52;;;3.90;;
72813;SDS011;60945;48.516;-2.768;2023-04-25T08:33:50;8.60;;;4.32;;
72813;SDS011;60945;48.516;-2.768;2023-04-25T08:36:17;8.05;;;3.58;;
72813;SDS011;60945;48.516;-2.768;2023-04-25T08:38:43;8.32;;;3.33;;
72813;SDS011;60945;48.516;-2.768;2023-04-25T08:41:09;8.32;;;3.85;;
72813;SDS011;60945;48.516;-2.768;2023-04-25T08:43:40;11.00;;;4.30;;
72813;SDS011;60945;48.516;-2.768;2023-04-25T08:46:08;9.23;;;3.60;;
72813;SDS011;60945;48.516;-2.768;2023-04-25T08:48:34;8.50;;;3.60;;
72813;SDS011;60945;48.516;-2.768;2023-04-25T08:51:01;9.88;;;3.75;;
72813;SDS011;60945;48.516;-2.768;2023-04-25T08:53:31;9.75;;;3.97;;
72813;SDS011;60945;48.516;-2.768;2023-04-25T08:55:58;11.05;;;3.80;;
72813;SDS011;60945;48.516;-2.768;2023-04-25T08:58:26;7.28;;;3.35;;
72813;SDS011;60945;48.516;-2.768;2023-04-25T09:00:53;9.50;;;4.32;;
72813;SDS011;60945;48.516;-2.768;2023-04-25T09:03:19;6.38;;;3.42;;
72813;SDS011;60945;48.516;-2.768;2023-04-25T09:05:44;7.28;;;3.50;;
72813;SDS011;60945;48.516;-2.768;2023-04-25T09:08:10;9.45;;;3.70;;
72813;SDS011;60945;48.516;-2.768;2023-04-25T09:10:36;7.43;;;3.70;;
72813;SDS011;60945;48.516;-2.768;2023-04-25T09:13:07;5.78;;;3.35;;
72813;SDS011;60945;48.516;-2.768;2023-04-25T09:15:50;10.20;;;3.65;;
72813;SDS011;60945;48.516;-2.768;2023-04-25T09:18:24;6.43;;;3.42;;
72813;SDS011;60945;48.516;-2.768;2023-04-25T09:20:54;6.70;;;3.75;;
72813;SDS011;60945;48.516;-2.768;2023-04-25T09:23:22;9.40;;;3.88;;
72813;SDS011;60945;48.516;-2.768;2023-04-25T09:25:48;7.88;;;3.40;;
72813;SDS011;60945;48.516;-2.768;2023-04-25T09:28:15;9.55;;;3.30;;
72813;SDS011;60945;48.516;-2.768;2023-04-25T09:30:48;6.53;;;3.13;;
72813;SDS011;60945;48.516;-2.768;2023-04-25T09:33:13;6.65;;;2.90;;
72813;SDS011;60945;48.516;-2.768;2023-04-25T09:35:42;4.57;;;2.08;;
72813;SDS011;60945;48.516;-2.768;2023-04-25T09:38:11;5.00;;;2.08;;
72813;SDS011;60945;48.516;-2.768;2023-04-25T09:43:10;3.92;;;2.50;;
72813;SDS011;60945;48.516;-2.768;2023-04-25T09:45:43;6.78;;;2.58;;
72813;SDS011;60945;48.516;-2.768;2023-04-25T09:48:11;5.07;;;3.55;;
72813;SDS011;60945;48.516;-2.768;2023-04-25T09:50:44;4.60;;;2.67;;
72813;SDS011;60945;48.516;-2.768;2023-04-25T09:53:10;5.60;;;2.90;;
72813;SDS011;60945;48.516;-2.768;2023-04-25T09:55:36;4.78;;;2.50;;
72813;SDS011;60945;48.516;-2.768;2023-04-25T09:58:04;5.90;;;3.10;;
72813;SDS011;60945;48.516;-2.768;2023-04-25T10:00:35;7.95;;;3.40;;
72813;SDS011;60945;48.516;-2.768;2023-04-25T10:03:01;9.50;;;3.47;;
72813;SDS011;60945;48.516;-2.768;2023-04-25T10:05:29;6.38;;;3.72;;
72813;SDS011;60945;48.516;-2.768;2023-04-25T10:07:57;5.95;;;3.03;;
72813;SDS011;60945;48.516;-2.768;2023-04-25T10:10:29;4.55;;;3.35;;
72813;SDS011;60945;48.516;-2.768;2023-04-25T10:12:58;4.00;;;2.60;;
72813;SDS011;60945;48.516;-2.768;2023-04-25T10:15:24;6.20;;;3.10;;
72813;SDS011;60945;48.516;-2.768;2023-04-25T10:17:50;4.88;;;3.22;;
72813;SDS011;60945;48.516;-2.768;2023-04-25T10:20:16;5.35;;;2.65;;
72813;SDS011;60945;48.516;-2.768;2023-04-25T10:22:42;6.55;;;3.75;;
72813;SDS011;60945;48.516;-2.768;2023-04-25T10:25:15;6.00;;;3.30;;
72813;SDS011;60945;48.516;-2.768;2023-04-25T10:27:41;6.53;;;3.10;;
72813;SDS011;60945;48.516;-2.768;2023-04-25T10:30:13;5.65;;;3.08;;
72813;SDS011;60945;48.516;-2.768;2023-04-25T10:32:43;4.57;;;2.95;;
72813;SDS011;60945;48.516;-2.768;2023-04-25T10:40:34;7.15;;;3.40;;
72813;SDS011;60945;48.516;-2.768;2023-04-25T10:43:47;7.35;;;3.20;;
72813;SDS011;60945;48.516;-2.768;2023-04-25T10:45:56;7.18;;;2.90;;
72813;SDS011;60945;48.516;-2.768;2023-04-25T10:48:25;5.97;;;3.00;;
72813;SDS011;60945;48.516;-2.768;2023-04-25T10:51:07;5.63;;;2.97;;
72813;SDS011;60945;48.516;-2.768;2023-04-25T10:53:34;13.32;;;4.85;;
72813;SDS011;60945;48.516;-2.768;2023-04-25T10:56:19;6.93;;;3.08;;
72813;SDS011;60945;48.516;-2.768;2023-04-25T10:58:46;6.55;;;3.75;;
72813;SDS011;60945;48.516;-2.768;2023-04-25T11:01:24;5.20;;;2.88;;
72813;SDS011;60945;48.516;-2.768;2023-04-25T11:03:56;8.02;;;2.75;;
72813;SDS011;60945;48.516;-2.768;2023-04-25T11:08:54;7.85;;;2.90;;
72813;SDS011;60945;48.516;-2.768;2023-04-25T11:11:20;5.40;;;2.80;;
72813;SDS011;60945;48.516;-2.768;2023-04-25T11:13:49;4.57;;;2.88;;
72813;SDS011;60945;48.516;-2.768;2023-04-25T11:16:15;9.55;;;3.80;;
72813;SDS011;60945;48.516;-2.768;2023-04-25T11:18:42;6.72;;;3.63;;
72813;SDS011;60945;48.516;-2.768;2023-04-25T11:21:08;8.13;;;2.80;;
72813;SDS011;60945;48.516;-2.768;2023-04-25T11:23:35;5.10;;;2.50;;
72813;SDS011;60945;48.516;-2.768;2023-04-25T11:26:02;6.55;;;3.10;;
72813;SDS011;60945;48.516;-2.768;2023-04-25T11:28:28;5.85;;;2.65;;
72813;SDS011;60945;48.516;-2.768;2023-04-25T11:30:54;5.78;;;2.30;;
72813;SDS011;60945;48.516;-2.768;2023-04-25T11:33:23;6.50;;;2.60;;
72813;SDS011;60945;48.516;-2.768;2023-04-25T11:35:50;7.60;;;3.08;;
72813;SDS011;60945;48.516;-2.768;2023-04-25T11:38:20;4.90;;;2.35;;
72813;SDS011;60945;48.516;-2.768;2023-04-25T11:40:50;8.85;;;2.97;;
72813;SDS011;60945;48.516;-2.768;2023-04-25T11:43:20;6.88;;;3.05;;
72813;SDS011;60945;48.516;-2.768;2023-04-25T11:45:50;7.10;;;2.95;;
72813;SDS011;60945;48.516;-2.768;2023-04-25T11:48:17;6.93;;;3.10;;
72813;SDS011;60945;48.516;-2.768;2023-04-25T11:50:43;5.57;;;2.92;;
72813;SDS011;60945;48.516;-2.768;2023-04-25T11:53:12;10.65;;;3.25;;
72813;SDS011;60945;48.516;-2.768;2023-04-25T11:55:38;7.07;;;3.22;;
72813;SDS011;60945;48.516;-2.768;2023-04-25T11:58:05;5.43;;;3.30;;
72813;SDS011;60945;48.516;-2.768;2023-04-25T12:00:31;11.13;;;3.67;;
72813;SDS011;60945;48.516;-2.768;2023-04-25T12:02:57;8.32;;;4.30;;
72813;SDS011;60945;48.516;-2.768;2023-04-25T12:05:24;7.18;;;3.72;;
72813;SDS011;60945;48.516;-2.768;2023-04-25T12:07:51;7.22;;;3.15;;
72813;SDS011;60945;48.516;-2.768;2023-04-25T12:10:17;7.28;;;3.17;;
72813;SDS011;60945;48.516;-2.768;2023-04-25T12:12:44;7.20;;;3.17;;
72813;SDS011;60945;48.516;-2.768;2023-04-25T12:15:12;6.90;;;2.90;;
72813;SDS011;60945;48.516;-2.768;2023-04-25T12:17:48;4.93;;;2.67;;
72813;SDS011;60945;48.516;-2.768;2023-04-25T12:20:18;6.30;;;3.15;;
72813;SDS011;60945;48.516;-2.768;2023-04-25T12:22:48;6.07;;;2.75;;
72813;SDS011;60945;48.516;-2.768;2023-04-25T12:25:36;6.15;;;3.05;;
72813;SDS011;60945;48.516;-2.768;2023-04-25T12:28:18;5.38;;;3.00;;
72813;SDS011;60945;48.516;-2.768;2023-04-25T12:33:29;8.98;;;4.45;;
72813;SDS011;60945;48.516;-2.768;2023-04-25T12:35:56;6.22;;;3.47;;
72813;SDS011;60945;48.516;-2.768;2023-04-25T12:41:00;8.10;;;3.42;;
72813;SDS011;60945;48.516;-2.768;2023-04-25T12:43:26;7.07;;;3.90;;
72813;SDS011;60945;48.516;-2.768;2023-04-25T12:45:52;5.80;;;3.53;;
72813;SDS011;60945;48.516;-2.768;2023-04-25T12:48:18;6.05;;;3.65;;
72813;SDS011;60945;48.516;-2.768;2023-04-25T12:50:45;7.97;;;4.28;;
72813;SDS011;60945;48.516;-2.768;2023-04-25T12:53:18;6.65;;;4.00;;
72813;SDS011;60945;48.516;-2.768;2023-04-25T12:55:45;8.75;;;4.50;;
72813;SDS011;60945;48.516;-2.768;2023-04-25T12:58:12;6.43;;;3.85;;
72813;SDS011;60945;48.516;-2.768;2023-04-25T13:00:41;7.88;;;3.75;;
72813;SDS011;60945;48.516;-2.768;2023-04-25T13:03:11;6.20;;;3.55;;
72813;SDS011;60945;48.516;-2.768;2023-04-25T13:05:37;5.88;;;3.58;;
72813;SDS011;60945;48.516;-2.768;2023-04-25T13:08:03;6.53;;;3.83;;
72813;SDS011;60945;48.516;-2.768;2023-04-25T13:10:29;6.57;;;3.65;;
72813;SDS011;60945;48.516;-2.768;2023-04-25T13:12:55;6.25;;;3.70;;
72813;SDS011;60945;48.516;-2.768;2023-04-25T13:15:21;5.82;;;3.45;;
72813;SDS011;60945;48.516;-2.768;2023-04-25T13:17:47;9.05;;;4.10;;
72813;SDS011;60945;48.516;-2.768;2023-04-25T13:20:12;9.23;;;3.83;;
72813;SDS011;60945;48.516;-2.768;2023-04-25T13:22:39;5.32;;;3.65;;
72813;SDS011;60945;48.516;-2.768;2023-04-25T13:25:06;7.78;;;3.95;;
72813;SDS011;60945;48.516;-2.768;2023-04-25T13:27:33;4.50;;;3.42;;
72813;SDS011;60945;48.516;-2.768;2023-04-25T13:30:01;5.65;;;3.50;;
72813;SDS011;60945;48.516;-2.768;2023-04-25T13:32:32;5.38;;;3.38;;
72813;SDS011;60945;48.516;-2.768;2023-04-25T13:35:05;7.13;;;4.00;;
72813;SDS011;60945;48.516;-2.768;2023-04-25T13:37:32;7.57;;;3.83;;
72813;SDS011;60945;48.516;-2.768;2023-04-25T13:40:07;7.70;;;3.92;;
72813;SDS011;60945;48.516;-2.768;2023-04-25T13:42:38;6.53;;;4.90;;
72813;SDS011;60945;48.516;-2.768;2023-04-25T13:45:07;10.82;;;4.20;;
72813;SDS011;60945;48.516;-2.768;2023-04-25T13:47:33;9.43;;;3.97;;
72813;SDS011;60945;48.516;-2.768;2023-04-25T13:49:59;6.15;;;4.50;;
72813;SDS011;60945;48.516;-2.768;2023-04-25T13:52:27;6.32;;;3.75;;
72813;SDS011;60945;48.516;-2.768;2023-04-25T13:54:54;6.00;;;3.40;;
72813;SDS011;60945;48.516;-2.768;2023-04-25T13:57:19;7.55;;;4.05;;
72813;SDS011;60945;48.516;-2.768;2023-04-25T13:59:45;6.13;;;4.43;;
72813;SDS011;60945;48.516;-2.768;2023-04-25T14:02:12;6.82;;;3.80;;
72813;SDS011;60945;48.516;-2.768;2023-04-25T14:04:38;9.73;;;3.88;;
72813;SDS011;60945;48.516;-2.768;2023-04-25T14:07:04;6.47;;;3.83;;
72813;SDS011;60945;48.516;-2.768;2023-04-25T14:09:30;6.07;;;3.70;;
72813;SDS011;60945;48.516;-2.768;2023-04-25T14:11:58;5.35;;;3.95;;
72813;SDS011;60945;48.516;-2.768;2023-04-25T14:14:24;5.57;;;3.75;;
72813;SDS011;60945;48.516;-2.768;2023-04-25T14:16:50;6.25;;;4.00;;
72813;SDS011;60945;48.516;-2.768;2023-04-25T14:19:18;7.78;;;3.90;;
72813;SDS011;60945;48.516;-2.768;2023-04-25T14:21:45;8.13;;;3.92;;
72813;SDS011;60945;48.516;-2.768;2023-04-25T14:24:11;7.30;;;4.25;;
72813;SDS011;60945;48.516;-2.768;2023-04-25T14:26:38;6.20;;;4.22;;
72813;SDS011;60945;48.516;-2.768;2023-04-25T14:29:04;7.38;;;4.50;;
72813;SDS011;60945;48.516;-2.768;2023-04-25T14:31:32;7.22;;;4.22;;
72813;SDS011;60945;48.516;-2.768;2023-04-25T14:33:58;6.25;;;4.10;;
72813;SDS011;60945;48.516;-2.768;2023-04-25T14:36:24;8.65;;;4.47;;
72813;SDS011;60945;48.516;-2.768;2023-04-25T14:38:51;7.75;;;4.55;;
72813;SDS011;60945;48.516;-2.768;2023-04-25T14:41:17;5.75;;;4.20;;
72813;SDS011;60945;48.516;-2.768;2023-04-25T14:43:43;7.15;;;4.15;;
72813;SDS011;60945;48.516;-2.768;2023-04-25T14:46:10;9.77;;;4.63;;
72813;SDS011;60945;48.516;-2.768;2023-04-25T14:48:35;8.63;;;4.45;;